sensor_id;sensor_type;location;lat;lon;timestamp;pressure;altitude;pressure_sealevel;temperature;humidity
6208;BME280;3137;51.550;7.060;2022-10-17T00:00:44;50170.78;;;-142.65;100.00
6208;BME280;3137;51.550;7.060;2022-10-17T00:05:42;50168.78;;;-142.65;100.00
6208;BME280;3137;51.550;7.060;2022-10-17T00:08:09;50164.81;;;-142.65;100.00
6208;BME280;3137;51.550;7.060;2022-10-17T00:10:37;50168.78;;;-142.65;100.00
6208;BME280;3137;51.550;7.060;2022-10-17T00:13:03;50164.81;;;-142.65;100.00
6208;BME280;3137;51.550;7.060;2022-10-17T00:15:30;50170.78;;;-142.65;100.00
6208;BME280;3137;51.550;7.060;2022-10-17T00:17:59;50172.78;;;-142.65;100.00
6208;BME280;3137;51.550;7.060;2022-10-17T00:20:26;50168.78;;;-142.65;100.00
6208;BME280;3137;51.550;7.060;2022-10-17T00:22:52;50162.81;;;-142.65;100.00
6208;BME280;3137;51.550;7.060;2022-10-17T00:25:18;50162.81;;;-142.65;100.00
6208;BME280;3137;51.550;7.060;2022-10-17T00:27:45;50172.78;;;-142.65;100.00
6208;BME280;3137;51.550;7.060;2022-10-17T00:30:15;50168.78;;;-142.65;100.00
6208;BME280;3137;51.550;7.060;2022-10-17T00:32:41;50170.78;;;-142.65;100.00
6208;BME280;3137;51.550;7.060;2022-10-17T00:35:08;50117.00;;;-142.65;100.00
6208;BME280;3137;51.550;7.060;2022-10-17T00:37:34;50162.81;;;-142.65;100.00
6208;BME280;3137;51.550;7.060;2022-10-17T00:40:02;50162.81;;;-142.65;100.00
6208;BME280;3137;51.550;7.060;2022-10-17T00:42:28;50168.78;;;-142.65;100.00
6208;BME280;3137;51.550;7.060;2022-10-17T00:48:02;50164.81;;;-142.65;100.00
6208;BME280;3137;51.550;7.060;2022-10-17T00:50:30;50170.78;;;-142.65;100.00
6208;BME280;3137;51.550;7.060;2022-10-17T00:53:00;50162.81;;;-142.65;100.00
6208;BME280;3137;51.550;7.060;2022-10-17T00:55:30;50170.78;;;-142.65;100.00
6208;BME280;3137;51.550;7.060;2022-10-17T01:00:26;50162.81;;;-142.65;100.00
6208;BME280;3137;51.550;7.060;2022-10-17T01:02:52;50162.81;;;-142.65;100.00
6208;BME280;3137;51.550;7.060;2022-10-17T01:10:14;50170.78;;;-142.65;100.00
6208;BME280;3137;51.550;7.060;2022-10-17T01:34:20;50164.81;;;-142.65;100.00
6208;BME280;3137;51.550;7.060;2022-10-17T01:54:39;50170.78;;;-142.65;100.00
6208;BME280;3137;51.550;7.060;2022-10-17T01:57:10;50162.81;;;-142.65;100.00
6208;BME280;3137;51.550;7.060;2022-10-17T01:59:41;50162.81;;;-142.65;100.00
6208;BME280;3137;51.550;7.060;2022-10-17T02:02:10;50176.75;;;-142.65;100.00
6208;BME280;3137;51.550;7.060;2022-10-17T02:07:11;50168.78;;;-142.65;100.00
6208;BME280;3137;51.550;7.060;2022-10-17T02:09:39;50164.81;;;-142.65;100.00
6208;BME280;3137;51.550;7.060;2022-10-17T02:12:16;50164.81;;;-142.65;100.00
6208;BME280;3137;51.550;7.060;2022-10-17T02:20:50;50172.78;;;-142.65;100.00
6208;BME280;3137;51.550;7.060;2022-10-17T02:23:35;50168.78;;;-142.65;100.00
6208;BME280;3137;51.550;7.060;2022-10-17T02:26:20;50164.81;;;-142.65;100.00
6208;BME280;3137;51.550;7.060;2022-10-17T02:29:04;50164.81;;;-142.65;100.00
6208;BME280;3137;51.550;7.060;2022-10-17T02:31:37;50164.81;;;-142.65;100.00
6208;BME280;3137;51.550;7.060;2022-10-17T02:36:44;50170.78;;;-142.65;100.00
6208;BME280;3137;51.550;7.060;2022-10-17T02:49:09;50164.81;;;-142.65;100.00
6208;BME280;3137;51.550;7.060;2022-10-17T02:54:19;50162.81;;;-142.65;100.00
6208;BME280;3137;51.550;7.060;2022-10-17T02:56:53;50168.78;;;-142.65;100.00
6208;BME280;3137;51.550;7.060;2022-10-17T02:59:21;50162.81;;;-142.65;100.00
6208;BME280;3137;51.550;7.060;2022-10-17T03:01:49;50164.81;;;-142.65;100.00
6208;BME280;3137;51.550;7.060;2022-10-17T03:06:45;50172.78;;;-142.65;100.00
6208;BME280;3137;51.550;7.060;2022-10-17T03:09:12;50168.78;;;-142.65;100.00
6208;BME280;3137;51.550;7.060;2022-10-17T03:11:39;50168.78;;;-142.65;100.00
6208;BME280;3137;51.550;7.060;2022-10-17T03:14:07;50160.81;;;-142.65;100.00
6208;BME280;3137;51.550;7.060;2022-10-17T03:16:33;50164.81;;;-142.65;100.00
6208;BME280;3137;51.550;7.060;2022-10-17T03:26:20;50162.81;;;-142.65;100.00
6208;BME280;3137;51.550;7.060;2022-10-17T03:31:19;50168.78;;;-142.65;100.00
6208;BME280;3137;51.550;7.060;2022-10-17T03:38:41;50164.81;;;-142.65;100.00
6208;BME280;3137;51.550;7.060;2022-10-17T03:43:36;50164.81;;;-142.65;100.00
6208;BME280;3137;51.550;7.060;2022-10-17T03:46:03;50162.81;;;-142.65;100.00
6208;BME280;3137;51.550;7.060;2022-10-17T03:48:31;50170.78;;;-142.65;100.00
6208;BME280;3137;51.550;7.060;2022-10-17T03:51:06;50170.78;;;-142.65;100.00
6208;BME280;3137;51.550;7.060;2022-10-17T04:01:10;50164.81;;;-142.65;100.00
6208;BME280;3137;51.550;7.060;2022-10-17T04:03:37;50162.81;;;-142.65;100.00
6208;BME280;3137;51.550;7.060;2022-10-17T04:06:04;50172.78;;;-142.65;100.00
6208;BME280;3137;51.550;7.060;2022-10-17T04:11:06;50170.78;;;-142.65;100.00
6208;BME280;3137;51.550;7.060;2022-10-17T04:13:34;50164.81;;;-142.65;100.00
6208;BME280;3137;51.550;7.060;2022-10-17T04:18:32;50170.78;;;-142.65;100.00
6208;BME280;3137;51.550;7.060;2022-10-17T04:21:05;50172.78;;;-142.65;100.00
6208;BME280;3137;51.550;7.060;2022-10-17T04:23:33;50162.81;;;-142.65;100.00
6208;BME280;3137;51.550;7.060;2022-10-17T04:31:04;50162.81;;;-142.65;100.00
6208;BME280;3137;51.550;7.060;2022-10-17T04:33:37;50162.81;;;-142.65;100.00
6208;BME280;3137;51.550;7.060;2022-10-17T04:36:07;50168.78;;;-142.65;100.00
6208;BME280;3137;51.550;7.060;2022-10-17T04:46:01;50168.78;;;-142.65;100.00
6208;BME280;3137;51.550;7.060;2022-10-17T04:48:28;50164.81;;;-142.65;100.00
6208;BME280;3137;51.550;7.060;2022-10-17T04:51:08;50164.81;;;-142.65;100.00
6208;BME280;3137;51.550;7.060;2022-10-17T04:53:42;50172.78;;;-142.65;100.00
6208;BME280;3137;51.550;7.060;2022-10-17T04:58:37;50172.78;;;-142.65;100.00
6208;BME280;3137;51.550;7.060;2022-10-17T05:01:06;50162.81;;;-142.65;100.00
6208;BME280;3137;51.550;7.060;2022-10-17T05:03:34;50162.81;;;-142.65;100.00
6208;BME280;3137;51.550;7.060;2022-10-17T05:08:36;50162.81;;;-142.65;100.00
6208;BME280;3137;51.550;7.060;2022-10-17T05:11:03;50164.81;;;-142.65;100.00
6208;BME280;3137;51.550;7.060;2022-10-17T05:13:31;50170.78;;;-142.65;100.00
6208;BME280;3137;51.550;7.060;2022-10-17T05:15:59;50170.78;;;-142.65;100.00
6208;BME280;3137;51.550;7.060;2022-10-17T05:18:27;50168.78;;;-142.65;100.00
6208;BME280;3137;51.550;7.060;2022-10-17T05:20:54;50168.78;;;-142.65;100.00
6208;BME280;3137;51.550;7.060;2022-10-17T05:23:20;50164.81;;;-142.65;100.00
6208;BME280;3137;51.550;7.060;2022-10-17T05:25:53;50162.81;;;-142.65;100.00
6208;BME280;3137;51.550;7.060;2022-10-17T05:28:22;50162.81;;;-142.65;100.00
6208;BME280;3137;51.550;7.060;2022-10-17T05:30:50;50117.00;;;-142.65;100.00
6208;BME280;3137;51.550;7.060;2022-10-17T05:33:17;50164.81;;;-142.65;100.00
6208;BME280;3137;51.550;7.060;2022-10-17T05:35:43;50162.81;;;-142.65;100.00
6208;BME280;3137;51.550;7.060;2022-10-17T05:43:05;50178.75;;;-142.65;100.00
6208;BME280;3137;51.550;7.060;2022-10-17T05:47:58;50168.78;;;-142.65;100.00
6208;BME280;3137;51.550;7.060;2022-10-17T05:50:25;50160.81;;;-142.65;100.00
6208;BME280;3137;51.550;7.060;2022-10-17T05:53:17;50162.81;;;-142.65;100.00
6208;BME280;3137;51.550;7.060;2022-10-17T05:55:54;50101.06;;;-142.65;100.00
6208;BME280;3137;51.550;7.060;2022-10-17T05:58:21;50164.81;;;-142.65;100.00
6208;BME280;3137;51.550;7.060;2022-10-17T06:03:39;50164.81;;;-142.65;99.43
6208;BME280;3137;51.550;7.060;2022-10-17T06:06:07;50101.06;;;-142.65;99.05
6208;BME280;3137;51.550;7.060;2022-10-17T06:08:37;50162.81;;;-142.65;98.60
6208;BME280;3137;51.550;7.060;2022-10-17T06:11:05;50162.81;;;-142.65;98.16
6208;BME280;3137;51.550;7.060;2022-10-17T06:13:36;50160.81;;;-142.65;96.92
6208;BME280;3137;51.550;7.060;2022-10-17T06:16:08;50162.81;;;-142.65;95.57
6208;BME280;3137;51.550;7.060;2022-10-17T06:18:35;50162.81;;;-142.65;95.35
6208;BME280;3137;51.550;7.060;2022-10-17T06:21:07;50164.81;;;-142.65;94.55
6208;BME280;3137;51.550;7.060;2022-10-17T06:23:37;50162.81;;;-142.65;94.77
6208;BME280;3137;51.550;7.060;2022-10-17T06:26:13;50162.81;;;-142.65;93.26
6208;BME280;3137;51.550;7.060;2022-10-17T06:28:40;50162.81;;;-142.65;92.85
6208;BME280;3137;51.550;7.060;2022-10-17T06:31:09;50162.81;;;-142.65;92.60
6208;BME280;3137;51.550;7.060;2022-10-17T06:33:36;50162.81;;;-142.65;92.40
6208;BME280;3137;51.550;7.060;2022-10-17T06:36:05;50162.81;;;-142.65;92.51
6208;BME280;3137;51.550;7.060;2022-10-17T06:38:33;50164.81;;;-142.65;91.60
6208;BME280;3137;51.550;7.060;2022-10-17T06:41:20;50160.81;;;-142.65;91.73
6208;BME280;3137;51.550;7.060;2022-10-17T06:43:50;50162.81;;;-142.65;91.63
6208;BME280;3137;51.550;7.060;2022-10-17T06:46:43;50101.06;;;-142.65;91.97
6208;BME280;3137;51.550;7.060;2022-10-17T06:49:13;50162.81;;;-142.65;91.78
6208;BME280;3137;51.550;7.060;2022-10-17T06:54:45;50164.81;;;-142.65;91.27
6208;BME280;3137;51.550;7.060;2022-10-17T06:57:40;50162.81;;;-142.65;91.22
6208;BME280;3137;51.550;7.060;2022-10-17T07:02:56;50162.81;;;-142.65;90.59
6208;BME280;3137;51.550;7.060;2022-10-17T07:05:22;50162.81;;;-142.65;90.36
6208;BME280;3137;51.550;7.060;2022-10-17T07:07:48;50101.06;;;-142.65;90.56
6208;BME280;3137;51.550;7.060;2022-10-17T07:12:43;50162.81;;;-142.65;90.37
6208;BME280;3137;51.550;7.060;2022-10-17T07:17:37;50162.81;;;-142.65;90.37
6208;BME280;3137;51.550;7.060;2022-10-17T07:22:33;50164.81;;;-142.65;89.71
6208;BME280;3137;51.550;7.060;2022-10-17T07:25:00;50162.81;;;-142.65;89.83
6208;BME280;3137;51.550;7.060;2022-10-17T07:27:35;50162.81;;;-142.65;89.91
6208;BME280;3137;51.550;7.060;2022-10-17T07:30:01;50170.78;;;-142.65;89.78
6208;BME280;3137;51.550;7.060;2022-10-17T07:35:00;50162.81;;;-142.65;89.23
6208;BME280;3137;51.550;7.060;2022-10-17T07:37:28;50162.81;;;-142.65;89.36
6208;BME280;3137;51.550;7.060;2022-10-17T07:42:22;50160.81;;;-142.65;89.44
6208;BME280;3137;51.550;7.060;2022-10-17T07:44:49;50164.81;;;-142.65;89.16
6208;BME280;3137;51.550;7.060;2022-10-17T07:47:16;50162.81;;;-142.65;88.41
6208;BME280;3137;51.550;7.060;2022-10-17T07:49:43;50162.81;;;-142.65;87.50
6208;BME280;3137;51.550;7.060;2022-10-17T07:52:14;50164.81;;;-142.65;87.01
6208;BME280;3137;51.550;7.060;2022-10-17T07:54:41;50164.81;;;-142.65;86.61
6208;BME280;3137;51.550;7.060;2022-10-17T07:57:08;50164.81;;;-142.65;86.34
6208;BME280;3137;51.550;7.060;2022-10-17T07:59:36;50162.81;;;-142.65;85.65
6208;BME280;3137;51.550;7.060;2022-10-17T08:06:56;50162.81;;;-142.65;83.98
6208;BME280;3137;51.550;7.060;2022-10-17T08:09:42;50162.81;;;-142.65;83.52
6208;BME280;3137;51.550;7.060;2022-10-17T08:12:09;50160.81;;;-142.65;83.87
6208;BME280;3137;51.550;7.060;2022-10-17T08:14:35;50162.81;;;-142.65;82.94
6208;BME280;3137;51.550;7.060;2022-10-17T08:19:28;50101.06;;;-142.65;82.13
6208;BME280;3137;51.550;7.060;2022-10-17T08:24:21;50162.81;;;-142.65;81.54
6208;BME280;3137;51.550;7.060;2022-10-17T08:26:47;50164.81;;;-142.65;80.56
6208;BME280;3137;51.550;7.060;2022-10-17T08:29:17;50162.81;;;-142.65;80.52
6208;BME280;3137;51.550;7.060;2022-10-17T08:31:43;50164.81;;;-142.65;81.21
6208;BME280;3137;51.550;7.060;2022-10-17T08:34:14;50162.81;;;-142.65;80.91
6208;BME280;3137;51.550;7.060;2022-10-17T08:36:41;50162.81;;;-142.65;80.52
6208;BME280;3137;51.550;7.060;2022-10-17T08:44:23;50162.81;;;-142.65;79.26
6208;BME280;3137;51.550;7.060;2022-10-17T08:46:58;50101.06;;;-142.65;78.81
6208;BME280;3137;51.550;7.060;2022-10-17T08:49:40;50164.81;;;-142.65;78.74
6208;BME280;3137;51.550;7.060;2022-10-17T08:52:23;50160.81;;;-142.65;78.15
6208;BME280;3137;51.550;7.060;2022-10-17T08:54:52;50162.81;;;-142.65;77.11
6208;BME280;3137;51.550;7.060;2022-10-17T08:57:19;50164.81;;;-142.65;77.43
6208;BME280;3137;51.550;7.060;2022-10-17T09:08:02;50164.81;;;-142.65;76.94
6208;BME280;3137;51.550;7.060;2022-10-17T09:10:41;50162.81;;;-142.65;77.62
6208;BME280;3137;51.550;7.060;2022-10-17T09:18:40;50162.81;;;-142.65;77.34
6208;BME280;3137;51.550;7.060;2022-10-17T09:21:42;50164.81;;;-142.65;75.89
6208;BME280;3137;51.550;7.060;2022-10-17T09:24:14;50164.81;;;-142.65;76.17
6208;BME280;3137;51.550;7.060;2022-10-17T09:34:20;50164.81;;;-142.65;76.80
6208;BME280;3137;51.550;7.060;2022-10-17T09:36:51;50162.81;;;-142.65;76.73
6208;BME280;3137;51.550;7.060;2022-10-17T09:39:22;50162.81;;;-142.65;75.74
6208;BME280;3137;51.550;7.060;2022-10-17T09:41:52;50162.81;;;-142.65;76.56
6208;BME280;3137;51.550;7.060;2022-10-17T09:44:22;50164.81;;;-142.65;75.71
6208;BME280;3137;51.550;7.060;2022-10-17T09:47:12;50164.81;;;-142.65;76.33
6208;BME280;3137;51.550;7.060;2022-10-17T09:49:43;50164.81;;;-142.65;75.56
6208;BME280;3137;51.550;7.060;2022-10-17T09:52:19;50164.81;;;-142.65;76.39
6208;BME280;3137;51.550;7.060;2022-10-17T09:59:55;50162.81;;;-142.65;76.23
6208;BME280;3137;51.550;7.060;2022-10-17T10:02:24;50162.81;;;-142.65;75.81
6208;BME280;3137;51.550;7.060;2022-10-17T10:04:51;50162.81;;;-142.65;76.17
6208;BME280;3137;51.550;7.060;2022-10-17T10:12:34;50164.81;;;-142.65;76.21
6208;BME280;3137;51.550;7.060;2022-10-17T10:17:47;50162.81;;;-142.65;76.97
6208;BME280;3137;51.550;7.060;2022-10-17T10:20:35;50162.81;;;-142.65;76.25
6208;BME280;3137;51.550;7.060;2022-10-17T10:23:15;50164.81;;;-142.65;76.96
6208;BME280;3137;51.550;7.060;2022-10-17T10:25:53;50101.06;;;-142.65;77.10
6208;BME280;3137;51.550;7.060;2022-10-17T10:30:50;50164.81;;;-142.65;77.40
6208;BME280;3137;51.550;7.060;2022-10-17T10:33:19;50160.81;;;-142.65;77.07
6208;BME280;3137;51.550;7.060;2022-10-17T10:35:58;50168.78;;;-142.65;77.46
6208;BME280;3137;51.550;7.060;2022-10-17T10:38:27;50162.81;;;-142.65;77.56
6208;BME280;3137;51.550;7.060;2022-10-17T10:48:29;50162.81;;;-142.65;77.27
6208;BME280;3137;51.550;7.060;2022-10-17T10:51:08;50164.81;;;-142.65;77.58
6208;BME280;3137;51.550;7.060;2022-10-17T10:53:42;50160.81;;;-142.65;77.98
6208;BME280;3137;51.550;7.060;2022-10-17T10:56:20;50168.78;;;-142.65;77.53
6208;BME280;3137;51.550;7.060;2022-10-17T10:59:15;50164.81;;;-142.65;78.10
6208;BME280;3137;51.550;7.060;2022-10-17T11:07:15;50164.81;;;-142.65;78.80
6208;BME280;3137;51.550;7.060;2022-10-17T11:12:26;50162.81;;;-142.65;78.28
6208;BME280;3137;51.550;7.060;2022-10-17T11:15:03;50162.81;;;-142.65;78.23
6208;BME280;3137;51.550;7.060;2022-10-17T11:22:44;50162.81;;;-142.65;77.68
6208;BME280;3137;51.550;7.060;2022-10-17T11:25:32;50160.81;;;-142.65;77.67
6208;BME280;3137;51.550;7.060;2022-10-17T11:27:59;50170.78;;;-142.65;77.83
6208;BME280;3137;51.550;7.060;2022-10-17T11:33:05;50162.81;;;-142.65;78.42
6208;BME280;3137;51.550;7.060;2022-10-17T11:38:15;50164.81;;;-142.65;78.36
6208;BME280;3137;51.550;7.060;2022-10-17T11:40:46;50164.81;;;-142.65;79.21
6208;BME280;3137;51.550;7.060;2022-10-17T11:43:28;50168.78;;;-142.65;79.00
6208;BME280;3137;51.550;7.060;2022-10-17T11:51:15;50162.81;;;-142.65;79.97
6208;BME280;3137;51.550;7.060;2022-10-17T11:54:09;50162.81;;;-142.65;80.11
6208;BME280;3137;51.550;7.060;2022-10-17T11:56:48;50162.81;;;-142.65;79.93
6208;BME280;3137;51.550;7.060;2022-10-17T12:02:07;50164.81;;;-142.65;80.36
6208;BME280;3137;51.550;7.060;2022-10-17T12:05:02;50162.81;;;-142.65;80.34
6208;BME280;3137;51.550;7.060;2022-10-17T12:07:44;50101.06;;;-142.65;79.96
6208;BME280;3137;51.550;7.060;2022-10-17T12:12:39;50162.81;;;-142.65;79.93
6208;BME280;3137;51.550;7.060;2022-10-17T12:17:53;50162.81;;;-142.65;79.43
6208;BME280;3137;51.550;7.060;2022-10-17T12:22:50;50162.81;;;-142.65;79.92
6208;BME280;3137;51.550;7.060;2022-10-17T12:25:37;50164.81;;;-142.65;79.94
6208;BME280;3137;51.550;7.060;2022-10-17T12:28:25;50162.81;;;-142.65;79.97
6208;BME280;3137;51.550;7.060;2022-10-17T12:31:03;50162.81;;;-142.65;80.33
6208;BME280;3137;51.550;7.060;2022-10-17T12:33:33;50164.81;;;-142.65;80.46
6208;BME280;3137;51.550;7.060;2022-10-17T12:49:23;50168.78;;;-142.65;81.44
6208;BME280;3137;51.550;7.060;2022-10-17T12:52:05;50160.81;;;-142.65;81.68
6208;BME280;3137;51.550;7.060;2022-10-17T13:00:21;50101.06;;;-142.65;82.29
6208;BME280;3137;51.550;7.060;2022-10-17T13:02:51;50160.81;;;-142.65;82.55
6208;BME280;3137;51.550;7.060;2022-10-17T13:15:17;50164.81;;;-142.65;83.27
6208;BME280;3137;51.550;7.060;2022-10-17T13:17:44;50162.81;;;-142.65;83.68
6208;BME280;3137;51.550;7.060;2022-10-17T13:20:22;50162.81;;;-142.65;84.35
6208;BME280;3137;51.550;7.060;2022-10-17T13:25:24;50160.81;;;-142.65;85.24
6208;BME280;3137;51.550;7.060;2022-10-17T13:28:02;50164.81;;;-142.65;85.19
6208;BME280;3137;51.550;7.060;2022-10-17T13:35:29;50160.81;;;-142.65;85.46
6208;BME280;3137;51.550;7.060;2022-10-17T13:38:24;50164.81;;;-142.65;85.67
6208;BME280;3137;51.550;7.060;2022-10-17T13:40:51;50164.81;;;-142.65;86.02
6208;BME280;3137;51.550;7.060;2022-10-17T13:43:27;50162.81;;;-142.65;86.07
6208;BME280;3137;51.550;7.060;2022-10-17T13:46:00;50164.81;;;-142.65;85.93
6208;BME280;3137;51.550;7.060;2022-10-17T13:48:50;50164.81;;;-142.65;86.22
6208;BME280;3137;51.550;7.060;2022-10-17T13:51:17;50162.81;;;-142.65;86.17
6208;BME280;3137;51.550;7.060;2022-10-17T13:56:24;50168.78;;;-142.65;86.06
6208;BME280;3137;51.550;7.060;2022-10-17T13:58:56;50164.81;;;-142.65;85.18
6208;BME280;3137;51.550;7.060;2022-10-17T14:01:26;50164.81;;;-142.65;84.87
6208;BME280;3137;51.550;7.060;2022-10-17T14:03:54;50162.81;;;-142.65;85.36
6208;BME280;3137;51.550;7.060;2022-10-17T14:09:13;50162.81;;;-142.65;84.06
6208;BME280;3137;51.550;7.060;2022-10-17T14:14:18;50164.81;;;-142.65;83.45
6208;BME280;3137;51.550;7.060;2022-10-17T14:16:46;50162.81;;;-142.65;83.11
6208;BME280;3137;51.550;7.060;2022-10-17T14:29:57;50162.81;;;-142.65;81.99
6208;BME280;3137;51.550;7.060;2022-10-17T14:32:27;50162.81;;;-142.65;82.25
6208;BME280;3137;51.550;7.060;2022-10-17T14:34:55;50162.81;;;-142.65;82.70
6208;BME280;3137;51.550;7.060;2022-10-17T14:37:44;50162.81;;;-142.65;82.64
6208;BME280;3137;51.550;7.060;2022-10-17T14:40:16;50164.81;;;-142.65;82.42
6208;BME280;3137;51.550;7.060;2022-10-17T14:42:44;50162.81;;;-142.65;82.59
6208;BME280;3137;51.550;7.060;2022-10-17T14:45:23;50162.81;;;-142.65;82.96
6208;BME280;3137;51.550;7.060;2022-10-17T14:47:52;50101.06;;;-142.65;82.70
6208;BME280;3137;51.550;7.060;2022-10-17T14:53:06;50162.81;;;-142.65;83.17
6208;BME280;3137;51.550;7.060;2022-10-17T14:56:04;50162.81;;;-142.65;82.62
6208;BME280;3137;51.550;7.060;2022-10-17T14:58:35;50164.81;;;-142.65;83.36
6208;BME280;3137;51.550;7.060;2022-10-17T15:01:01;50164.81;;;-142.65;83.17
6208;BME280;3137;51.550;7.060;2022-10-17T15:03:27;50170.78;;;-142.65;83.12
6208;BME280;3137;51.550;7.060;2022-10-17T15:05:54;50162.81;;;-142.65;82.86
6208;BME280;3137;51.550;7.060;2022-10-17T15:08:22;50160.81;;;-142.65;82.70
6208;BME280;3137;51.550;7.060;2022-10-17T15:10:49;50162.81;;;-142.65;83.10
6208;BME280;3137;51.550;7.060;2022-10-17T15:13:16;50162.81;;;-142.65;83.45
6208;BME280;3137;51.550;7.060;2022-10-17T15:16:14;50162.81;;;-142.65;83.65
6208;BME280;3137;51.550;7.060;2022-10-17T15:18:43;50162.81;;;-142.65;84.05
6208;BME280;3137;51.550;7.060;2022-10-17T15:21:12;50101.06;;;-142.65;84.38
6208;BME280;3137;51.550;7.060;2022-10-17T15:26:29;50162.81;;;-142.65;85.14
6208;BME280;3137;51.550;7.060;2022-10-17T15:28:57;50162.81;;;-142.65;84.73
6208;BME280;3137;51.550;7.060;2022-10-17T15:33:51;50162.81;;;-142.65;86.09
6208;BME280;3137;51.550;7.060;2022-10-17T15:36:24;50164.81;;;-142.65;86.11
6208;BME280;3137;51.550;7.060;2022-10-17T15:41:18;50162.81;;;-142.65;86.47
6208;BME280;3137;51.550;7.060;2022-10-17T15:43:48;50164.81;;;-142.65;86.79
6208;BME280;3137;51.550;7.060;2022-10-17T15:48:49;50162.81;;;-142.65;87.31
6208;BME280;3137;51.550;7.060;2022-10-17T15:51:16;50162.81;;;-142.65;87.40
6208;BME280;3137;51.550;7.060;2022-10-17T15:53:43;50162.81;;;-142.65;87.77
6208;BME280;3137;51.550;7.060;2022-10-17T15:56:23;50162.81;;;-142.65;88.56
6208;BME280;3137;51.550;7.060;2022-10-17T15:58:50;50162.81;;;-142.65;88.85
6208;BME280;3137;51.550;7.060;2022-10-17T16:01:25;50162.81;;;-142.65;88.93
6208;BME280;3137;51.550;7.060;2022-10-17T16:03:52;50162.81;;;-142.65;89.16
6208;BME280;3137;51.550;7.060;2022-10-17T16:06:19;50162.81;;;-142.65;89.26
6208;BME280;3137;51.550;7.060;2022-10-17T16:08:47;50162.81;;;-142.65;89.95
6208;BME280;3137;51.550;7.060;2022-10-17T16:11:30;50160.81;;;-142.65;90.01
6208;BME280;3137;51.550;7.060;2022-10-17T16:14:00;50164.81;;;-142.65;90.61
6208;BME280;3137;51.550;7.060;2022-10-17T16:16:27;50164.81;;;-142.65;90.67
6208;BME280;3137;51.550;7.060;2022-10-17T16:21:24;50164.81;;;-142.65;91.71
6208;BME280;3137;51.550;7.060;2022-10-17T16:23:52;50101.06;;;-142.65;91.72
6208;BME280;3137;51.550;7.060;2022-10-17T16:26:18;50162.81;;;-142.65;91.89
6208;BME280;3137;51.550;7.060;2022-10-17T16:28:45;50162.81;;;-142.65;92.03
6208;BME280;3137;51.550;7.060;2022-10-17T16:31:21;50164.81;;;-142.65;92.38
6208;BME280;3137;51.550;7.060;2022-10-17T16:33:49;50164.81;;;-142.65;93.03
6208;BME280;3137;51.550;7.060;2022-10-17T16:36:16;50162.81;;;-142.65;93.39
6208;BME280;3137;51.550;7.060;2022-10-17T16:41:21;50162.81;;;-142.65;92.86
6208;BME280;3137;51.550;7.060;2022-10-17T16:46:15;50162.81;;;-142.65;92.74
6208;BME280;3137;51.550;7.060;2022-10-17T16:48:42;50162.81;;;-142.65;92.97
6208;BME280;3137;51.550;7.060;2022-10-17T16:51:10;50168.78;;;-142.65;92.40
6208;BME280;3137;51.550;7.060;2022-10-17T16:53:37;50164.81;;;-142.65;92.08
6208;BME280;3137;51.550;7.060;2022-10-17T17:01:10;50164.81;;;-142.65;91.67
6208;BME280;3137;51.550;7.060;2022-10-17T17:03:42;50168.78;;;-142.65;91.29
6208;BME280;3137;51.550;7.060;2022-10-17T17:06:12;50168.78;;;-142.65;91.33
6208;BME280;3137;51.550;7.060;2022-10-17T17:08:39;50162.81;;;-142.65;91.13
6208;BME280;3137;51.550;7.060;2022-10-17T17:13:32;50164.81;;;-142.65;91.54
6208;BME280;3137;51.550;7.060;2022-10-17T17:16:08;50168.78;;;-142.65;91.09
6208;BME280;3137;51.550;7.060;2022-10-17T17:21:03;50162.81;;;-142.65;91.46
6208;BME280;3137;51.550;7.060;2022-10-17T17:23:32;50164.81;;;-142.65;91.73
6208;BME280;3137;51.550;7.060;2022-10-17T17:30:54;50164.81;;;-142.65;91.68
6208;BME280;3137;51.550;7.060;2022-10-17T17:33:22;50162.81;;;-142.65;91.81
6208;BME280;3137;51.550;7.060;2022-10-17T17:35:54;50170.78;;;-142.65;92.17
6208;BME280;3137;51.550;7.060;2022-10-17T17:38:21;50162.81;;;-142.65;92.47
6208;BME280;3137;51.550;7.060;2022-10-17T17:43:17;50164.81;;;-142.65;92.46
6208;BME280;3137;51.550;7.060;2022-10-17T17:48:09;50162.81;;;-142.65;92.81
6208;BME280;3137;51.550;7.060;2022-10-17T17:50:38;50164.81;;;-142.65;92.78
6208;BME280;3137;51.550;7.060;2022-10-17T17:53:06;50164.81;;;-142.65;92.88
6208;BME280;3137;51.550;7.060;2022-10-17T17:55:33;50160.81;;;-142.65;92.86
6208;BME280;3137;51.550;7.060;2022-10-17T17:58:00;50170.78;;;-142.65;93.04
6208;BME280;3137;51.550;7.060;2022-10-17T18:02:53;50164.81;;;-142.65;92.85
6208;BME280;3137;51.550;7.060;2022-10-17T18:05:19;50164.81;;;-142.65;93.08
6208;BME280;3137;51.550;7.060;2022-10-17T18:07:45;50164.81;;;-142.65;93.26
6208;BME280;3137;51.550;7.060;2022-10-17T18:10:12;50162.81;;;-142.65;93.40
6208;BME280;3137;51.550;7.060;2022-10-17T18:12:40;50118.97;;;-142.65;93.64
6208;BME280;3137;51.550;7.060;2022-10-17T18:15:07;50164.81;;;-142.65;94.03
6208;BME280;3137;51.550;7.060;2022-10-17T18:17:34;50162.81;;;-142.65;94.00
6208;BME280;3137;51.550;7.060;2022-10-17T18:24:55;50164.81;;;-142.65;94.42
6208;BME280;3137;51.550;7.060;2022-10-17T18:27:21;50164.81;;;-142.65;94.16
6208;BME280;3137;51.550;7.060;2022-10-17T18:29:47;50160.81;;;-142.65;94.36
6208;BME280;3137;51.550;7.060;2022-10-17T18:32:16;50164.81;;;-142.65;94.39
6208;BME280;3137;51.550;7.060;2022-10-17T18:34:42;50164.81;;;-142.65;94.57
6208;BME280;3137;51.550;7.060;2022-10-17T18:37:08;50168.78;;;-142.65;94.54
6208;BME280;3137;51.550;7.060;2022-10-17T18:42:01;50162.81;;;-142.65;94.60
6208;BME280;3137;51.550;7.060;2022-10-17T18:44:27;50162.81;;;-142.65;94.61
6208;BME280;3137;51.550;7.060;2022-10-17T18:46:54;50164.81;;;-142.65;94.66
6208;BME280;3137;51.550;7.060;2022-10-17T18:49:26;50164.81;;;-142.65;94.50
6208;BME280;3137;51.550;7.060;2022-10-17T18:51:53;50164.81;;;-142.65;94.36
6208;BME280;3137;51.550;7.060;2022-10-17T18:56:49;50164.81;;;-142.65;94.04
6208;BME280;3137;51.550;7.060;2022-10-17T18:59:17;50164.81;;;-142.65;94.15
6208;BME280;3137;51.550;7.060;2022-10-17T19:01:43;50162.81;;;-142.65;94.45
6208;BME280;3137;51.550;7.060;2022-10-17T19:06:37;50162.81;;;-142.65;94.04
6208;BME280;3137;51.550;7.060;2022-10-17T19:09:07;50164.81;;;-142.65;94.08
6208;BME280;3137;51.550;7.060;2022-10-17T19:11:35;50162.81;;;-142.65;94.25
6208;BME280;3137;51.550;7.060;2022-10-17T19:16:35;50170.78;;;-142.65;93.75